Time;durP1;ratioP1;P1;durP2;ratioP2;P2;SDS_P1;SDS_P2;PMS_P1;PMS_P2;Temp;Humidity;BMP_temperature;BMP_pressure;BME280_temperature;BME280_humidity;BME280_pressure;Samples;Min_cycle;Max_cycle;Signal;HPM_P1;HPM_P2
2023/01/08 00:01:51;;;;;;;;;;;;;;;;;;5047324;28;19917;-59
2023/01/08 00:04:17;;;;;;;;;;;;;;;;;;5046969;28;20005;-59
2023/01/08 00:06:43;;;;;;;;;;;;;;;;;;5048562;28;20487;-59
2023/01/08 00:09:09;;;;;;;;;;;;;;;;;;5040763;28;19913;-58
2023/01/08 00:11:35;;;;;;;;;;;;;;;;;;5051842;28;20346;-59
2023/01/08 00:14:01;;;;;;;;;;;;;;;;;;5051976;28;19996;-59
2023/01/08 00:16:27;;;;;;;;;;;;;;;;;;5051085;28;20366;-59
2023/01/08 00:18:52;;;;;;;;;;;;;;;;;;5050425;28;19916;-59
2023/01/08 00:21:19;;;;;;;;;;;;;;;;;;5056532;28;19913;-58
2023/01/08 00:23:45;;;;;;;;;;;;;;;;;;5042051;28;19921;-59
2023/01/08 00:26:11;;;;;;;;;;;;;;;;;;5049461;28;19944;-59
2023/01/08 00:28:37;;;;;;;;;;;;;;;;;;5049245;28;20356;-58
2023/01/08 00:31:03;;;;;;;;;;;;;;;;;;5050674;28;19931;-59
2023/01/08 00:33:29;;;;;;;;;;;;;;;;;;5051221;28;19913;-58
2023/01/08 00:35:54;;;;;;;;;;;;;;;;;;5051541;28;19960;-59
2023/01/08 00:38:20;;;;;;;;;;;;;;;;;;5053109;28;20442;-59
2023/01/08 00:40:46;;;;;;;;;;;;;;;;;;5051739;28;19919;-59
2023/01/08 00:43:12;;;;;;;;;;;;;;;;;;5052785;28;19962;-58
2023/01/08 00:45:38;;;;;;;;;;;;;;;;;;5046774;28;19921;-59
2023/01/08 00:48:05;;;;;;;;;;;;;;;;;;5052962;28;19909;-58
2023/01/08 00:50:30;;;;;;;;;;;;;;;;;;5046976;28;20381;-59
2023/01/08 00:52:56;;;;;;;;;;;;;;;;;;5049981;28;19943;-59
2023/01/08 00:55:22;;;;;;;;;;;;;;;;;;5042727;28;19913;-60
2023/01/08 00:57:48;;;;;;;;;;;;;;;;;;5063123;28;19948;-59
2023/01/08 01:00:14;;;;;;;;;;;;;;;;;;5050308;28;20074;-59
2023/01/08 01:02:40;;;;;;;;;;;;;;;;;;5039607;28;19971;-59
2023/01/08 01:05:06;;;;;;;;;;;;;;;;;;5044296;28;19956;-59
2023/01/08 01:07:32;;;;;;;;;;;;;;;;;;5052590;28;19999;-59
2023/01/08 01:09:58;;;;;;;;;;;;;;;;;;5046724;28;20060;-59
2023/01/08 01:12:24;;;;;;;;;;;;;;;;;;5032448;28;19909;-59
2023/01/08 01:14:50;;;;;;;;;;;;;;;;;;5043299;28;19917;-59
2023/01/08 01:17:16;;;;;;;;;;;;;;;;;;5038633;28;20410;-59
2023/01/08 01:19:41;;;;;;;;;;;;;;;;;;5050431;28;19916;-59
2023/01/08 01:22:07;;;;;;;;;;;;;;;;;;5049971;28;20284;-59
2023/01/08 01:24:33;;;;;;;;;;;;;;;;;;5043494;28;19920;-59
2023/01/08 01:26:59;;;;;;;;;;;;;;;;;;5052243;28;19956;-59
2023/01/08 01:29:25;;;;;;;;;;;;;;;;;;5039334;28;19995;-58
2023/01/08 01:31:51;;;;;;;;;;;;;;;;;;5043829;28;20365;-59
2023/01/08 01:34:17;;;;;;;;;;;;;;;;;;5043983;28;19948;-59
2023/01/08 01:36:43;;;;;;;;;;;;;;;;;;5048860;28;19917;-58
2023/01/08 01:39:09;;;;;;;;;;;;;;;;;;5048195;28;20425;-58
2023/01/08 01:41:34;;;;;;;;;;;;;;;;;;5047175;28;19936;-60
2023/01/08 01:44:00;;;;;;;;;;;;;;;;;;5041735;28;20004;-59
2023/01/08 01:46:26;;;;;;;;;;;;;;;;;;5042665;28;19923;-59
2023/01/08 01:48:52;;;;;;;;;;;;;;;;;;5042714;28;19913;-59
2023/01/08 01:51:18;;;;;;;;;;;;;;;;;;5048530;28;19994;-59
2023/01/08 01:53:44;;;;;;;;;;;;;;;;;;5038120;28;19913;-58
2023/01/08 01:56:10;;;;;;;;;;;;;;;;;;5040670;28;19923;-59
2023/01/08 01:58:36;;;;;;;;;;;;;;;;;;5045975;28;20380;-59
2023/01/08 02:01:02;;;;;;;;;;;;;;;;;;5054941;28;19991;-60
2023/01/08 02:03:28;;;;;;;;;;;;;;;;;;5054927;28;19955;-61
2023/01/08 02:05:54;;;;;;;;;;;;;;;;;;5037674;28;20433;-61
2023/01/08 02:08:20;;;;;;;;;;;;;;;;;;5049554;28;19921;-61
2023/01/08 02:10:46;;;;;;;;;;;;;;;;;;5040357;28;19979;-61
2023/01/08 02:13:12;;;;;;;;;;;;;;;;;;5046996;28;19913;-61
2023/01/08 02:15:38;;;;;;;;;;;;;;;;;;5069744;28;19982;-60
2023/01/08 02:18:03;;;;;;;;;;;;;;;;;;5055390;28;19954;-60
2023/01/08 02:20:29;;;;;;;;;;;;;;;;;;5045864;28;19916;-60
2023/01/08 02:22:55;;;;;;;;;;;;;;;;;;5044078;28;19948;-60
2023/01/08 02:25:21;;;;;;;;;;;;;;;;;;5050907;28;19923;-60
2023/01/08 02:27:47;;;;;;;;;;;;;;;;;;5053601;28;19955;-61
2023/01/08 02:30:13;;;;;;;;;;;;;;;;;;5050710;28;19982;-60
2023/01/08 02:32:39;;;;;;;;;;;;;;;;;;5051980;28;19971;-61
2023/01/08 02:35:05;;;;;;;;;;;;;;;;;;5045587;28;20445;-60
2023/01/08 02:37:31;;;;;;;;;;;;;;;;;;5051964;28;19976;-60
2023/01/08 02:39:57;;;;;;;;;;;;;;;;;;5051635;28;19921;-59
2023/01/08 02:42:23;;;;;;;;;;;;;;;;;;5047339;28;20417;-59
2023/01/08 02:44:48;;;;;;;;;;;;;;;;;;5051920;28;19917;-60
2023/01/08 02:47:14;;;;;;;;;;;;;;;;;;5052610;28;19932;-61
2023/01/08 02:49:40;;;;;;;;;;;;;;;;;;5050589;28;19916;-60
2023/01/08 02:52:06;;;;;;;;;;;;;;;;;;5045798;28;19948;-61
2023/01/08 02:54:32;;;;;;;;;;;;;;;;;;5050564;28;20360;-60
2023/01/08 02:56:58;;;;;;;;;;;;;;;;;;5048374;28;19909;-60
2023/01/08 02:59:24;;;;;;;;;;;;;;;;;;5048793;28;20339;-60
2023/01/08 03:01:50;;;;;;;;;;;;;;;;;;5051992;28;19919;-60
2023/01/08 03:04:16;;;;;;;;;;;;;;;;;;5039234;28;19917;-61
2023/01/08 03:06:42;;;;;;;;;;;;;;;;;;5051752;28;19963;-60
2023/01/08 03:09:07;;;;;;;;;;;;;;;;;;5047568;28;19917;-61
2023/01/08 03:11:33;;;;;;;;;;;;;;;;;;5051715;28;19913;-61
2023/01/08 03:13:59;;;;;;;;;;;;;;;;;;5049311;28;19959;-60
2023/01/08 03:16:25;;;;;;;;;;;;;;;;;;5051833;28;19948;-61
2023/01/08 03:18:51;;;;;;;;;;;;;;;;;;5053475;28;19975;-60
2023/01/08 03:21:17;;;;;;;;;;;;;;;;;;5047754;28;19965;-60
2023/01/08 03:23:43;;;;;;;;;;;;;;;;;;5049289;28;19971;-60
2023/01/08 03:26:09;;;;;;;;;;;;;;;;;;5057472;28;19945;-60
2023/01/08 03:28:35;;;;;;;;;;;;;;;;;;5044982;28;19952;-60
2023/01/08 03:31:01;;;;;;;;;;;;;;;;;;5043491;28;19948;-58
2023/01/08 03:33:27;;;;;;;;;;;;;;;;;;5051084;28;20465;-60
2023/01/08 03:35:53;;;;;;;;;;;;;;;;;;5036194;28;19913;-60
2023/01/08 03:38:19;;;;;;;;;;;;;;;;;;5037573;28;20344;-61
2023/01/08 03:40:45;;;;;;;;;;;;;;;;;;5034679;28;20024;-61
2023/01/08 03:43:11;;;;;;;;;;;;;;;;;;5053066;28;20286;-60
2023/01/08 03:45:36;;;;;;;;;;;;;;;;;;5040031;28;20004;-60
2023/01/08 03:48:02;;;;;;;;;;;;;;;;;;5038942;28;19925;-61
2023/01/08 03:50:28;;;;;;;;;;;;;;;;;;5047857;28;20387;-60
2023/01/08 03:52:54;;;;;;;;;;;;;;;;;;5050557;28;19966;-61
2023/01/08 03:55:20;;;;;;;;;;;;;;;;;;5054064;28;19919;-60
2023/01/08 03:57:46;;;;;;;;;;;;;;;;;;5037094;28;19913;-60
2023/01/08 04:00:12;;;;;;;;;;;;;;;;;;5044008;28;19952;-60
2023/01/08 04:02:40;;;;;;;;;;;;;;;;;;5049404;28;19948;-61
2023/01/08 04:05:06;;;;;;;;;;;;;;;;;;5046417;28;19925;-58
2023/01/08 04:07:32;;;;;;;;;;;;;;;;;;5042501;28;19919;-60
2023/01/08 04:09:58;;;;;;;;;;;;;;;;;;5045034;28;20630;-60
2023/01/08 04:12:24;;;;;;;;;;;;;;;;;;5038278;28;19913;-60
2023/01/08 04:14:50;;;;;;;;;;;;;;;;;;5036883;28;19956;-60
2023/01/08 04:17:16;;;;;;;;;;;;;;;;;;5044023;28;19913;-60
2023/01/08 04:19:42;;;;;;;;;;;;;;;;;;5041535;28;20335;-61
2023/01/08 04:22:08;;;;;;;;;;;;;;;;;;5052130;28;19982;-61
2023/01/08 04:24:33;;;;;;;;;;;;;;;;;;5044219;28;19959;-60
2023/01/08 04:26:59;;;;;;;;;;;;;;;;;;5048950;28;19917;-60
2023/01/08 04:29:25;;;;;;;;;;;;;;;;;;5041924;28;20460;-60
2023/01/08 04:31:51;;;;;;;;;;;;;;;;;;5041044;28;19913;-60
2023/01/08 04:34:17;;;;;;;;;;;;;;;;;;5032567;28;20345;-60
2023/01/08 04:36:43;;;;;;;;;;;;;;;;;;5039471;28;19916;-60
2023/01/08 04:39:09;;;;;;;;;;;;;;;;;;5047143;28;19920;-61
2023/01/08 04:41:35;;;;;;;;;;;;;;;;;;5050658;28;19970;-61
2023/01/08 04:44:01;;;;;;;;;;;;;;;;;;5051400;28;19912;-61
2023/01/08 04:46:26;;;;;;;;;;;;;;;;;;5049138;28;19919;-60
2023/01/08 04:48:52;;;;;;;;;;;;;;;;;;5049630;28;19913;-61
2023/01/08 04:51:18;;;;;;;;;;;;;;;;;;5043291;28;19947;-60
2023/01/08 04:53:45;;;;;;;;;;;;;;;;;;5050443;28;20361;-61
2023/01/08 04:56:11;;;;;;;;;;;;;;;;;;5050317;28;19909;-60
2023/01/08 04:58:37;;;;;;;;;;;;;;;;;;5045313;28;20299;-60
2023/01/08 05:01:03;;;;;;;;;;;;;;;;;;5045616;28;19923;-60
2023/01/08 05:03:28;;;;;;;;;;;;;;;;;;5033644;28;19917;-58
2023/01/08 05:05:54;;;;;;;;;;;;;;;;;;5038727;28;20374;-60
2023/01/08 05:08:20;;;;;;;;;;;;;;;;;;5006631;28;20031;-60
2023/01/08 05:10:46;;;;;;;;;;;;;;;;;;4998810;28;19917;-60
2023/01/08 05:13:12;;;;;;;;;;;;;;;;;;5001671;28;19913;-60
2023/01/08 05:15:38;;;;;;;;;;;;;;;;;;5007142;28;19920;-60
2023/01/08 05:18:04;;;;;;;;;;;;;;;;;;5001163;28;19913;-58
2023/01/08 05:20:30;;;;;;;;;;;;;;;;;;5004905;28;19960;-60
2023/01/08 05:22:57;;;;;;;;;;;;;;;;;;5001244;28;19913;-60
2023/01/08 05:25:23;;;;;;;;;;;;;;;;;;5010772;28;19913;-61
2023/01/08 05:27:49;;;;;;;;;;;;;;;;;;4998936;28;19921;-60
2023/01/08 05:30:14;;;;;;;;;;;;;;;;;;5007268;28;20447;-60
2023/01/08 05:32:40;;;;;;;;;;;;;;;;;;5008078;28;19945;-60
2023/01/08 05:35:06;;;;;;;;;;;;;;;;;;5006292;28;20099;-61
2023/01/08 05:37:32;;;;;;;;;;;;;;;;;;5005456;28;19933;-60
2023/01/08 05:39:58;;;;;;;;;;;;;;;;;;5007599;28;19925;-61
2023/01/08 05:42:24;;;;;;;;;;;;;;;;;;4997674;28;20440;-60
2023/01/08 05:44:50;;;;;;;;;;;;;;;;;;5007677;28;19967;-61
2023/01/08 05:47:16;;;;;;;;;;;;;;;;;;5008544;28;20288;-60
2023/01/08 05:49:42;;;;;;;;;;;;;;;;;;4997669;28;19924;-60
2023/01/08 05:52:07;;;;;;;;;;;;;;;;;;5007813;28;19932;-60
2023/01/08 05:54:33;;;;;;;;;;;;;;;;;;5005754;28;20389;-60
2023/01/08 05:56:59;;;;;;;;;;;;;;;;;;5010880;28;19949;-60
2023/01/08 05:59:25;;;;;;;;;;;;;;;;;;4998639;28;20335;-60
2023/01/08 06:01:51;;;;;;;;;;;;;;;;;;5000800;28;19913;-60
2023/01/08 06:04:17;;;;;;;;;;;;;;;;;;4996818;28;19961;-59
2023/01/08 06:06:43;;;;;;;;;;;;;;;;;;5046275;28;19923;-61
2023/01/08 06:09:09;;;;;;;;;;;;;;;;;;5045082;28;19909;-60
2023/01/08 06:11:34;;;;;;;;;;;;;;;;;;5038491;28;19967;-60
2023/01/08 06:14:00;;;;;;;;;;;;;;;;;;5037762;28;19966;-60
2023/01/08 06:16:26;;;;;;;;;;;;;;;;;;5043403;28;20368;-61
2023/01/08 06:18:52;;;;;;;;;;;;;;;;;;5043861;28;19982;-61
2023/01/08 06:21:18;;;;;;;;;;;;;;;;;;5049845;28;19956;-61
2023/01/08 06:23:44;;;;;;;;;;;;;;;;;;5048070;28;19991;-61
2023/01/08 06:26:10;;;;;;;;;;;;;;;;;;5042149;28;19917;-60
2023/01/08 06:28:36;;;;;;;;;;;;;;;;;;5045380;28;20008;-61
2023/01/08 06:31:02;;;;;;;;;;;;;;;;;;5046261;28;20403;-61
2023/01/08 06:33:28;;;;;;;;;;;;;;;;;;5048713;28;19948;-60
2023/01/08 06:35:53;;;;;;;;;;;;;;;;;;5049439;28;19913;-61
2023/01/08 06:38:20;;;;;;;;;;;;;;;;;;5043988;28;20364;-59
2023/01/08 06:40:45;;;;;;;;;;;;;;;;;;5050260;28;19956;-60
2023/01/08 06:43:11;;;;;;;;;;;;;;;;;;5053224;28;19959;-61
2023/01/08 06:45:37;;;;;;;;;;;;;;;;;;5054175;28;20007;-61
2023/01/08 06:48:03;;;;;;;;;;;;;;;;;;5046149;28;19925;-60
2023/01/08 06:50:29;;;;;;;;;;;;;;;;;;5048523;28;19955;-61
2023/01/08 06:52:55;;;;;;;;;;;;;;;;;;5046863;28;19920;-60
2023/01/08 06:55:21;;;;;;;;;;;;;;;;;;5052555;28;19919;-58
2023/01/08 06:57:47;;;;;;;;;;;;;;;;;;5054033;28;19960;-60
2023/01/08 07:00:13;;;;;;;;;;;;;;;;;;5050747;28;19919;-61
2023/01/08 07:02:39;;;;;;;;;;;;;;;;;;5056558;28;19999;-60
2023/01/08 07:05:04;;;;;;;;;;;;;;;;;;5048772;28;20019;-61
2023/01/08 07:07:30;;;;;;;;;;;;;;;;;;5052588;28;19927;-61
2023/01/08 07:09:56;;;;;;;;;;;;;;;;;;5048621;28;20540;-61
2023/01/08 07:12:22;;;;;;;;;;;;;;;;;;5048840;28;19919;-60
2023/01/08 07:14:48;;;;;;;;;;;;;;;;;;5049263;28;19940;-59
2023/01/08 07:17:14;;;;;;;;;;;;;;;;;;5048356;28;20028;-61
2023/01/08 07:19:40;;;;;;;;;;;;;;;;;;5049898;28;20437;-61
2023/01/08 07:22:06;;;;;;;;;;;;;;;;;;5052526;28;19913;-60
2023/01/08 07:24:32;;;;;;;;;;;;;;;;;;5050556;28;20471;-61
2023/01/08 07:26:57;;;;;;;;;;;;;;;;;;5045534;28;20034;-60
2023/01/08 07:29:23;;;;;;;;;;;;;;;;;;5045944;28;19917;-60
2023/01/08 07:31:49;;;;;;;;;;;;;;;;;;5046538;28;20368;-61
2023/01/08 07:34:15;;;;;;;;;;;;;;;;;;5043361;28;19965;-60
2023/01/08 07:36:41;;;;;;;;;;;;;;;;;;5052272;28;19912;-60
2023/01/08 07:39:07;;;;;;;;;;;;;;;;;;5047456;28;19958;-60
2023/01/08 07:41:33;;;;;;;;;;;;;;;;;;5047815;28;20421;-61
2023/01/08 07:43:59;;;;;;;;;;;;;;;;;;5049158;28;20043;-60
2023/01/08 07:46:25;;;;;;;;;;;;;;;;;;5046412;28;19916;-61
2023/01/08 07:48:51;;;;;;;;;;;;;;;;;;5051702;28;20388;-60
2023/01/08 07:51:16;;;;;;;;;;;;;;;;;;5048870;28;19913;-60
2023/01/08 07:53:42;;;;;;;;;;;;;;;;;;5049580;28;19956;-60
2023/01/08 07:56:09;;;;;;;;;;;;;;;;;;5048655;28;19956;-60
2023/01/08 07:58:35;;;;;;;;;;;;;;;;;;5047419;28;20016;-60
2023/01/08 08:01:01;;;;;;;;;;;;;;;;;;5045830;28;20595;-61
2023/01/08 08:03:27;;;;;;;;;;;;;;;;;;5033688;28;19941;-60
2023/01/08 08:05:53;;;;;;;;;;;;;;;;;;5047660;28;20035;-60
2023/01/08 08:08:18;;;;;;;;;;;;;;;;;;5050354;28;19951;-61
2023/01/08 08:10:44;;;;;;;;;;;;;;;;;;5048704;28;19996;-60
2023/01/08 08:13:10;;;;;;;;;;;;;;;;;;5037569;28;19917;-60
2023/01/08 08:15:36;;;;;;;;;;;;;;;;;;5049020;28;19931;-60
2023/01/08 08:18:02;;;;;;;;;;;;;;;;;;5044432;28;19956;-60
2023/01/08 08:20:28;;;;;;;;;;;;;;;;;;5049264;28;19916;-61
2023/01/08 08:22:54;;;;;;;;;;;;;;;;;;5047338;28;20324;-58
2023/01/08 08:25:20;;;;;;;;;;;;;;;;;;5050448;28;19952;-60
2023/01/08 08:27:46;;;;;;;;;;;;;;;;;;5049944;28;20071;-60
2023/01/08 08:30:12;;;;;;;;;;;;;;;;;;5044273;28;20012;-59
2023/01/08 08:32:37;;;;;;;;;;;;;;;;;;5050973;28;20035;-61
2023/01/08 08:35:03;;;;;;;;;;;;;;;;;;5049208;28;19959;-59
2023/01/08 08:37:29;;;;;;;;;;;;;;;;;;5051603;28;20406;-60
2023/01/08 08:39:55;;;;;;;;;;;;;;;;;;5048513;28;19947;-61
2023/01/08 08:42:21;;;;;;;;;;;;;;;;;;5049919;28;19967;-60
2023/01/08 08:44:47;;;;;;;;;;;;;;;;;;5044535;28;19964;-61
2023/01/08 08:47:13;;;;;;;;;;;;;;;;;;5047966;28;19948;-60
2023/01/08 08:49:39;;;;;;;;;;;;;;;;;;5047950;28;20564;-61
2023/01/08 08:52:05;;;;;;;;;;;;;;;;;;5046349;28;19917;-60
2023/01/08 08:54:31;;;;;;;;;;;;;;;;;;5046405;28;19954;-59
2023/01/08 08:56:57;;;;;;;;;;;;;;;;;;5055215;28;20322;-61
2023/01/08 08:59:22;;;;;;;;;;;;;;;;;;5048964;28;19963;-60
2023/01/08 09:01:48;;;;;;;;;;;;;;;;;;5042638;28;20001;-61
2023/01/08 09:04:14;;;;;;;;;;;;;;;;;;5048240;28;19995;-60
2023/01/08 09:06:40;;;;;;;;;;;;;;;;;;5046251;28;19931;-60
2023/01/08 09:09:06;;;;;;;;;;;;;;;;;;5048209;28;20268;-60
2023/01/08 09:11:32;;;;;;;;;;;;;;;;;;5048137;28;19944;-61
2023/01/08 09:13:58;;;;;;;;;;;;;;;;;;5047769;28;19951;-60
2023/01/08 09:16:24;;;;;;;;;;;;;;;;;;5040607;28;19974;-60
2023/01/08 09:18:50;;;;;;;;;;;;;;;;;;5052206;28;19952;-60
2023/01/08 09:21:16;;;;;;;;;;;;;;;;;;5047466;28;19912;-60
2023/01/08 09:23:41;;;;;;;;;;;;;;;;;;5046860;28;20003;-60
2023/01/08 09:26:07;;;;;;;;;;;;;;;;;;5049156;28;19917;-60
2023/01/08 09:28:33;;;;;;;;;;;;;;;;;;5043597;28;19917;-60
2023/01/08 09:30:59;;;;;;;;;;;;;;;;;;5042856;28;19974;-60
2023/01/08 09:33:25;;;;;;;;;;;;;;;;;;5049018;28;20368;-60
2023/01/08 09:35:51;;;;;;;;;;;;;;;;;;5043492;28;19917;-60
2023/01/08 09:38:17;;;;;;;;;;;;;;;;;;5050608;28;19951;-61
2023/01/08 09:40:43;;;;;;;;;;;;;;;;;;5045507;28;20230;-60
2023/01/08 09:43:10;;;;;;;;;;;;;;;;;;5041589;28;19979;-60
2023/01/08 09:45:36;;;;;;;;;;;;;;;;;;5039787;28;20291;-60
2023/01/08 09:48:02;;;;;;;;;;;;;;;;;;5045320;28;19952;-61
2023/01/08 09:50:28;;;;;;;;;;;;;;;;;;5047631;28;19923;-60
2023/01/08 09:52:54;;;;;;;;;;;;;;;;;;5050686;28;20276;-60
2023/01/08 09:55:19;;;;;;;;;;;;;;;;;;5045123;28;19920;-60
2023/01/08 09:57:45;;;;;;;;;;;;;;;;;;5047672;28;19952;-60
2023/01/08 10:00:11;;;;;;;;;;;;;;;;;;5046890;28;20055;-60
2023/01/08 10:02:37;;;;;;;;;;;;;;;;;;5049751;28;19912;-60
2023/01/08 10:05:04;;;;;;;;;;;;;;;;;;5049107;28;19929;-60
2023/01/08 10:07:30;;;;;;;;;;;;;;;;;;5045168;28;19967;-60
2023/01/08 10:09:56;;;;;;;;;;;;;;;;;;5043396;28;19960;-60
2023/01/08 10:12:22;;;;;;;;;;;;;;;;;;5045545;28;20013;-60
2023/01/08 10:14:48;;;;;;;;;;;;;;;;;;5040620;28;19919;-60
2023/01/08 10:17:14;;;;;;;;;;;;;;;;;;5047439;28;19924;-60
2023/01/08 10:19:40;;;;;;;;;;;;;;;;;;5046770;28;19975;-60
2023/01/08 10:22:06;;;;;;;;;;;;;;;;;;5046542;28;20322;-59
2023/01/08 10:24:32;;;;;;;;;;;;;;;;;;5044110;28;19917;-60
2023/01/08 10:26:58;;;;;;;;;;;;;;;;;;5049495;28;20019;-60
2023/01/08 10:29:24;;;;;;;;;;;;;;;;;;5044938;28;20003;-60
2023/01/08 10:31:50;;;;;;;;;;;;;;;;;;5051219;28;19913;-59
2023/01/08 10:34:15;;;;;;;;;;;;;;;;;;5052703;28;20392;-59
2023/01/08 10:36:41;;;;;;;;;;;;;;;;;;5045723;28;20402;-59
2023/01/08 10:39:07;;;;;;;;;;;;;;;;;;5054910;28;19916;-60
2023/01/08 10:41:33;;;;;;;;;;;;;;;;;;5047266;28;19960;-60
2023/01/08 10:43:59;;;;;;;;;;;;;;;;;;5047721;28;19948;-60
2023/01/08 10:46:25;;;;;;;;;;;;;;;;;;5042298;28;19923;-60
2023/01/08 10:48:51;;;;;;;;;;;;;;;;;;5044025;28;19917;-60
2023/01/08 10:51:17;;;;;;;;;;;;;;;;;;5050808;28;19913;-60
2023/01/08 10:53:43;;;;;;;;;;;;;;;;;;5045079;28;19958;-59
2023/01/08 10:56:09;;;;;;;;;;;;;;;;;;5051309;28;19916;-60
2023/01/08 10:58:35;;;;;;;;;;;;;;;;;;5045511;28;19925;-60
2023/01/08 11:01:00;;;;;;;;;;;;;;;;;;5040866;28;19940;-59
2023/01/08 11:03:26;;;;;;;;;;;;;;;;;;5045737;28;19959;-59
2023/01/08 11:05:52;;;;;;;;;;;;;;;;;;5051330;28;19925;-61
2023/01/08 11:08:18;;;;;;;;;;;;;;;;;;5051730;28;20364;-60
2023/01/08 11:10:44;;;;;;;;;;;;;;;;;;5046611;28;19920;-60
2023/01/08 11:13:10;;;;;;;;;;;;;;;;;;5046808;28;20384;-60
2023/01/08 11:15:36;;;;;;;;;;;;;;;;;;5049657;28;20009;-59
2023/01/08 11:18:02;;;;;;;;;;;;;;;;;;5040652;28;20597;-59
2023/01/08 11:20:29;;;;;;;;;;;;;;;;;;5046569;28;20003;-60
2023/01/08 11:22:55;;;;;;;;;;;;;;;;;;5050876;28;20361;-59
2023/01/08 11:25:21;;;;;;;;;;;;;;;;;;5046139;28;19932;-60
2023/01/08 11:27:47;;;;;;;;;;;;;;;;;;5042243;28;19952;-58
2023/01/08 11:30:13;;;;;;;;;;;;;;;;;;5041231;28;19917;-60
2023/01/08 11:32:38;;;;;;;;;;;;;;;;;;5045530;28;19959;-60
2023/01/08 11:35:04;;;;;;;;;;;;;;;;;;5048533;28;19923;-59
2023/01/08 11:37:30;;;;;;;;;;;;;;;;;;5043122;28;21667;-60
2023/01/08 11:39:56;;;;;;;;;;;;;;;;;;5039354;28;19969;-59
2023/01/08 11:42:22;;;;;;;;;;;;;;;;;;5029068;28;20019;-60
2023/01/08 11:44:48;;;;;;;;;;;;;;;;;;5028013;28;20007;-58
2023/01/08 11:47:14;;;;;;;;;;;;;;;;;;5033273;28;19940;-60
2023/01/08 11:49:40;;;;;;;;;;;;;;;;;;5029152;28;20020;-59
2023/01/08 11:52:06;;;;;;;;;;;;;;;;;;5028069;28;19917;-59
2023/01/08 11:54:32;;;;;;;;;;;;;;;;;;5031114;28;20467;-60
2023/01/08 11:56:58;;;;;;;;;;;;;;;;;;5036750;28;19913;-57
2023/01/08 11:59:23;;;;;;;;;;;;;;;;;;5047432;28;19975;-59
2023/01/08 12:01:49;;;;;;;;;;;;;;;;;;5049012;28;19936;-59
2023/01/08 12:04:15;;;;;;;;;;;;;;;;;;5052175;28;19915;-59
2023/01/08 12:06:41;;;;;;;;;;;;;;;;;;5049540;28;19963;-61
2023/01/08 12:09:07;;;;;;;;;;;;;;;;;;5045980;28;19969;-60
2023/01/08 12:11:33;;;;;;;;;;;;;;;;;;5050426;28;19919;-60
2023/01/08 12:13:59;;;;;;;;;;;;;;;;;;5039401;28;19968;-59
2023/01/08 12:16:25;;;;;;;;;;;;;;;;;;5048885;28;20414;-60
2023/01/08 12:18:51;;;;;;;;;;;;;;;;;;5038129;28;19928;-61
2023/01/08 12:21:17;;;;;;;;;;;;;;;;;;5039129;28;19993;-60
2023/01/08 12:23:43;;;;;;;;;;;;;;;;;;5051261;28;19917;-59
2023/01/08 12:26:09;;;;;;;;;;;;;;;;;;5047331;28;19966;-60
2023/01/08 12:28:35;;;;;;;;;;;;;;;;;;5044417;28;20384;-59
2023/01/08 12:31:01;;;;;;;;;;;;;;;;;;5039509;28;19967;-60
2023/01/08 12:33:27;;;;;;;;;;;;;;;;;;5043964;28;19963;-61
2023/01/08 12:35:53;;;;;;;;;;;;;;;;;;5044846;28;19955;-60
2023/01/08 12:38:19;;;;;;;;;;;;;;;;;;5051652;28;20358;-61
2023/01/08 12:40:44;;;;;;;;;;;;;;;;;;5048132;28;19916;-61
2023/01/08 12:43:10;;;;;;;;;;;;;;;;;;5044235;28;19991;-58
2023/01/08 12:45:36;;;;;;;;;;;;;;;;;;5047908;28;19961;-59
2023/01/08 12:48:02;;;;;;;;;;;;;;;;;;5048956;28;19917;-59
2023/01/08 12:50:28;;;;;;;;;;;;;;;;;;5041614;28;19917;-60
2023/01/08 12:52:54;;;;;;;;;;;;;;;;;;5044213;28;19952;-60
2023/01/08 12:55:20;;;;;;;;;;;;;;;;;;5044587;28;19922;-59
2023/01/08 12:57:46;;;;;;;;;;;;;;;;;;5042172;28;19924;-60
2023/01/08 13:00:12;;;;;;;;;;;;;;;;;;5031534;28;19964;-59
2023/01/08 13:02:39;;;;;;;;;;;;;;;;;;5048537;28;20006;-60
2023/01/08 13:05:05;;;;;;;;;;;;;;;;;;5042467;28;19925;-58
2023/01/08 13:07:31;;;;;;;;;;;;;;;;;;5042883;28;20371;-59
2023/01/08 13:09:57;;;;;;;;;;;;;;;;;;5039655;28;19921;-60
2023/01/08 13:12:22;;;;;;;;;;;;;;;;;;5046338;28;19974;-60
2023/01/08 13:14:48;;;;;;;;;;;;;;;;;;5053759;28;19986;-60
2023/01/08 13:17:14;;;;;;;;;;;;;;;;;;5048549;28;19913;-60
2023/01/08 13:19:40;;;;;;;;;;;;;;;;;;5049924;28;20346;-60
2023/01/08 13:22:06;;;;;;;;;;;;;;;;;;5044339;28;19913;-60
2023/01/08 13:24:33;;;;;;;;;;;;;;;;;;5044844;28;19956;-58
2023/01/08 13:26:58;;;;;;;;;;;;;;;;;;5048851;28;19999;-59
2023/01/08 13:29:24;;;;;;;;;;;;;;;;;;5051501;28;20391;-60
2023/01/08 13:31:50;;;;;;;;;;;;;;;;;;5048120;28;19971;-60
2023/01/08 13:34:16;;;;;;;;;;;;;;;;;;5050891;28;20339;-60
2023/01/08 13:36:42;;;;;;;;;;;;;;;;;;5050244;28;20375;-60
2023/01/08 13:39:08;;;;;;;;;;;;;;;;;;5050574;28;19980;-60
2023/01/08 13:41:34;;;;;;;;;;;;;;;;;;5050668;28;19913;-60
2023/01/08 13:44:00;;;;;;;;;;;;;;;;;;5051135;28;19917;-60
2023/01/08 13:46:26;;;;;;;;;;;;;;;;;;5049129;28;20295;-60
2023/01/08 13:48:52;;;;;;;;;;;;;;;;;;5050596;28;19957;-60
2023/01/08 13:51:18;;;;;;;;;;;;;;;;;;5054807;28;20028;-60
2023/01/08 13:53:44;;;;;;;;;;;;;;;;;;5054895;28;19916;-60
2023/01/08 13:56:09;;;;;;;;;;;;;;;;;;5055126;28;19916;-60
2023/01/08 13:58:35;;;;;;;;;;;;;;;;;;5055164;28;20452;-60
2023/01/08 14:01:01;;;;;;;;;;;;;;;;;;5054248;28;19917;-60
2023/01/08 14:03:27;;;;;;;;;;;;;;;;;;5054077;28;19908;-60
2023/01/08 14:05:53;;;;;;;;;;;;;;;;;;5059150;28;19917;-60
2023/01/08 14:08:19;;;;;;;;;;;;;;;;;;5054386;28;19963;-60
2023/01/08 14:10:45;;;;;;;;;;;;;;;;;;5053665;28;19917;-60
2023/01/08 14:13:11;;;;;;;;;;;;;;;;;;5054707;28;19966;-60
2023/01/08 14:15:36;;;;;;;;;;;;;;;;;;5054634;28;20305;-61
2023/01/08 14:18:02;;;;;;;;;;;;;;;;;;5053862;28;19991;-60
2023/01/08 14:20:28;;;;;;;;;;;;;;;;;;5058706;28;20036;-60
2023/01/08 14:22:54;;;;;;;;;;;;;;;;;;5060396;28;19967;-60
2023/01/08 14:25:20;;;;;;;;;;;;;;;;;;5053455;28;20327;-60
2023/01/08 14:27:46;;;;;;;;;;;;;;;;;;5054683;28;19959;-59
2023/01/08 14:30:12;;;;;;;;;;;;;;;;;;5053519;28;19942;-60
2023/01/08 14:32:38;;;;;;;;;;;;;;;;;;5054422;28;20011;-60
2023/01/08 14:35:04;;;;;;;;;;;;;;;;;;5056778;28;19919;-58
2023/01/08 14:37:30;;;;;;;;;;;;;;;;;;5055059;28;20368;-61
2023/01/08 14:39:56;;;;;;;;;;;;;;;;;;5055952;28;20009;-60
2023/01/08 14:45:06;;;;;;;;;;;;;;;;;;5053516;28;20035;-60
2023/01/08 14:47:32;;;;;;;;;;;;;;;;;;5050572;28;20007;-60
2023/01/08 14:49:58;;;;;;;;;;;;;;;;;;5053155;28;19940;-60
2023/01/08 14:52:24;;;;;;;;;;;;;;;;;;5053969;28;20329;-60
2023/01/08 14:54:50;;;;;;;;;;;;;;;;;;5054420;28;19915;-59
2023/01/08 14:57:16;;;;;;;;;;;;;;;;;;5051155;28;19948;-60
2023/01/08 14:59:42;;;;;;;;;;;;;;;;;;5051406;28;19995;-60
2023/01/08 15:02:08;;;;;;;;;;;;;;;;;;5053711;28;19919;-61
2023/01/08 15:04:34;;;;;;;;;;;;;;;;;;5053412;28;19920;-61
2023/01/08 15:06:59;;;;;;;;;;;;;;;;;;5053305;28;19963;-59
2023/01/08 15:09:25;;;;;;;;;;;;;;;;;;5051827;28;19921;-60
2023/01/08 15:11:53;;;;;;;;;;;;;;;;;;5052450;28;21541;-60
2023/01/08 15:14:21;;;;;;;;;;;;;;;;;;5051940;28;19944;-60
2023/01/08 15:16:47;;;;;;;;;;;;;;;;;;5045819;28;19920;-60
2023/01/08 15:19:13;;;;;;;;;;;;;;;;;;5053426;28;20383;-60
2023/01/08 15:21:39;;;;;;;;;;;;;;;;;;5052014;28;19919;-60
2023/01/08 15:24:05;;;;;;;;;;;;;;;;;;5053805;28;20290;-61
2023/01/08 15:26:31;;;;;;;;;;;;;;;;;;5049403;28;19948;-60
2023/01/08 15:28:57;;;;;;;;;;;;;;;;;;5048798;28;19919;-60
2023/01/08 15:31:22;;;;;;;;;;;;;;;;;;5052892;28;19939;-58
2023/01/08 15:33:48;;;;;;;;;;;;;;;;;;5050963;28;19909;-61
2023/01/08 15:36:14;;;;;;;;;;;;;;;;;;5046371;28;20325;-60
2023/01/08 15:38:40;;;;;;;;;;;;;;;;;;5044357;28;20008;-60
2023/01/08 15:41:06;;;;;;;;;;;;;;;;;;5040448;28;19917;-60
2023/01/08 15:43:32;;;;;;;;;;;;;;;;;;5051198;28;19964;-60
2023/01/08 15:45:58;;;;;;;;;;;;;;;;;;5052769;28;19921;-61
2023/01/08 15:48:24;;;;;;;;;;;;;;;;;;5043650;28;20493;-60
2023/01/08 15:50:51;;;;;;;;;;;;;;;;;;5048376;28;20402;-60
2023/01/08 15:53:17;;;;;;;;;;;;;;;;;;5056367;28;19935;-59
2023/01/08 15:55:44;;;;;;;;;;;;;;;;;;5059475;28;20368;-61
2023/01/08 15:58:11;;;;;;;;;;;;;;;;;;5053943;28;19996;-60
2023/01/08 16:00:37;;;;;;;;;;;;;;;;;;5032426;28;19979;-60
2023/01/08 16:03:03;;;;;;;;;;;;;;;;;;5051319;28;19955;-60
2023/01/08 16:05:29;;;;;;;;;;;;;;;;;;5046206;28;19960;-60
2023/01/08 16:07:55;;;;;;;;;;;;;;;;;;5048241;28;19913;-60
2023/01/08 16:10:21;;;;;;;;;;;;;;;;;;5047874;28;19917;-58
2023/01/08 16:12:47;;;;;;;;;;;;;;;;;;5041370;28;19917;-57
2023/01/08 16:15:13;;;;;;;;;;;;;;;;;;5044852;28;20382;-60
2023/01/08 16:17:39;;;;;;;;;;;;;;;;;;5042419;28;20011;-58
2023/01/08 16:20:05;;;;;;;;;;;;;;;;;;5043772;28;19925;-60
2023/01/08 16:22:31;;;;;;;;;;;;;;;;;;5048594;28;20020;-60
2023/01/08 16:24:57;;;;;;;;;;;;;;;;;;5048809;28;19920;-60
2023/01/08 16:27:23;;;;;;;;;;;;;;;;;;5047002;28;19915;-60
2023/01/08 16:29:49;;;;;;;;;;;;;;;;;;5048034;28;19917;-60
2023/01/08 16:32:15;;;;;;;;;;;;;;;;;;5047026;28;19979;-60
2023/01/08 16:34:41;;;;;;;;;;;;;;;;;;5043565;28;19925;-61
2023/01/08 16:37:07;;;;;;;;;;;;;;;;;;5047563;28;19964;-61
2023/01/08 16:39:33;;;;;;;;;;;;;;;;;;5048019;28;20005;-60